Time;durP1;ratioP1;P1;durP2;ratioP2;P2;SDS_P1;SDS_P2;PMS_P1;PMS_P2;Temp;Humidity;BMP_temperature;BMP_pressure;BME280_temperature;BME280_humidity;BME280_pressure;Samples;Min_cycle;Max_cycle;Signal;HPM_P1;HPM_P2
2023/12/04 00:03:56;;;;;;;0.98;0.80;;;;;;;16.79;37.24;96557.31;10398979;28;20167;-29
2023/12/04 00:08:56;;;;;;;1.23;0.83;;;;;;;16.79;37.54;96549.72;10404569;28;20108;-30
2023/12/04 00:13:56;;;;;;;2.30;0.90;;;;;;;16.82;37.47;96542.13;10393455;28;20171;-30
2023/12/04 00:18:57;;;;;;;0.73;0.70;;;;;;;16.83;38.22;96517.72;10397818;28;20025;-31
2023/12/04 00:23:57;;;;;;;0.77;0.50;;;;;;;16.83;37.54;96512.66;10394798;28;20441;-30
2023/12/04 00:28:57;;;;;;;0.80;0.60;;;;;;;16.82;38.38;96498.34;10389793;28;20105;-30
2023/12/04 00:33:58;;;;;;;0.73;0.60;;;;;;;16.82;38.76;96480.63;10403048;28;20144;-30
2023/12/04 00:38:58;;;;;;;1.20;0.90;;;;;;;16.79;38.06;96478.06;10392623;28;20373;-30
2023/12/04 00:43:58;;;;;;;0.83;0.73;;;;;;;16.83;38.12;96477.25;10410859;28;20033;-30
2023/12/04 00:48:59;;;;;;;0.63;0.60;;;;;;;16.80;38.21;96464.59;10399594;28;20071;-29
2023/12/04 00:53:59;;;;;;;0.80;0.63;;;;;;;16.82;38.23;96465.47;10402528;28;20430;-31
2023/12/04 00:58:59;;;;;;;1.03;0.60;;;;;;;16.86;38.55;96457.03;10397129;28;20537;-30
2023/12/04 01:04:00;;;;;;;1.70;0.60;;;;;;;16.84;38.42;96451.13;10407829;28;20100;-30
2023/12/04 01:09:00;;;;;;;0.93;0.55;;;;;;;16.86;38.18;96457.88;10390789;28;20029;-30
2023/12/04 01:14:00;;;;;;;1.33;0.60;;;;;;;16.84;38.04;96458.72;10395265;28;20037;-29
2023/12/04 01:19:01;;;;;;;3.03;1.17;;;;;;;16.86;38.42;96462.09;10411296;28;20135;-29
2023/12/04 01:24:01;;;;;;;0.87;0.80;;;;;;;16.85;38.31;96452.81;10397352;28;20045;-31
2023/12/04 01:29:01;;;;;;;0.73;0.53;;;;;;;16.82;38.10;96456.19;10406321;28;20033;-29
2023/12/04 01:34:02;;;;;;;0.60;0.53;;;;;;;16.84;37.98;96446.06;10408170;28;20033;-30
2023/12/04 01:39:03;;;;;;;0.50;0.50;;;;;;;16.81;37.99;96435.97;10407038;28;20549;-31
2023/12/04 01:44:03;;;;;;;0.85;0.57;;;;;;;16.80;37.66;96431.72;10399176;28;20086;-29
2023/12/04 01:49:04;;;;;;;0.90;0.50;;;;;;;16.78;38.14;96419.09;10400698;28;20086;-29
2023/12/04 01:54:06;;;;;;;0.60;0.50;;;;;;;16.78;38.42;96403.09;10402495;28;20041;-30
2023/12/04 01:59:06;;;;;;;0.70;0.40;;;;;;;16.76;37.74;96399.72;10403881;28;20124;-30
2023/12/04 02:04:07;;;;;;;0.43;0.40;;;;;;;16.75;38.02;96395.50;10406310;28;20071;-29
2023/12/04 02:09:11;;;;;;;0.93;0.52;;;;;;;16.73;36.98;96390.44;10401206;28;20021;-30
2023/12/04 02:14:12;;;;;;;0.52;0.50;;;;;;;16.77;37.29;96381.19;10406876;28;20048;-30
2023/12/04 02:19:13;;;;;;;0.32;0.30;;;;;;;16.74;36.83;96383.72;10401011;28;20073;-29
2023/12/04 02:24:13;;;;;;;0.50;0.50;;;;;;;16.74;36.95;96381.19;10401384;28;20072;-30
2023/12/04 02:29:19;;;;;;;0.30;0.30;;;;;;;16.75;37.07;96382.88;10401498;28;20075;-30
2023/12/04 02:34:20;;;;;;;0.40;0.27;;;;;;;16.77;36.67;96387.09;10406146;28;20064;-30
2023/12/04 02:39:20;;;;;;;0.30;0.30;;;;;;;16.76;36.53;96394.66;10402449;28;20477;-30
2023/12/04 02:44:21;;;;;;;0.30;0.30;;;;;;;16.73;36.34;96397.19;10400669;28;20141;-29
2023/12/04 02:49:21;;;;;;;1.67;0.50;;;;;;;16.73;36.12;96402.25;10408093;28;20507;-30
2023/12/04 02:54:21;;;;;;;0.40;0.37;;;;;;;16.71;36.30;96408.13;10396978;28;20049;-30
2023/12/04 02:59:22;;;;;;;0.40;0.40;;;;;;;16.70;36.10;96407.28;10392373;28;20038;-29
2023/12/04 03:04:22;;;;;;;0.47;0.40;;;;;;;16.70;36.16;96404.75;10402607;28;20492;-29
2023/12/04 03:09:23;;;;;;;0.93;0.40;;;;;;;16.69;35.93;96405.59;10400291;28;20034;-30
2023/12/04 03:14:23;;;;;;;0.30;0.30;;;;;;;16.68;35.97;96391.28;10403945;28;20407;-29
2023/12/04 03:19:24;;;;;;;0.85;0.30;;;;;;;16.69;35.82;96395.47;10393772;28;20315;-29
2023/12/04 03:24:24;;;;;;;0.50;0.45;;;;;;;16.67;36.12;96379.47;10392631;28;20048;-30
2023/12/04 03:29:24;;;;;;;1.20;0.50;;;;;;;16.70;36.18;96389.59;10397005;28;20048;-30
2023/12/04 03:34:25;;;;;;;0.63;0.60;;;;;;;16.69;36.53;96377.78;10403384;28;20037;-30
2023/12/04 03:39:25;;;;;;;0.73;0.30;;;;;;;16.73;37.05;96388.75;10407943;28;20026;-30
2023/12/04 03:44:25;;;;;;;0.50;0.40;;;;;;;16.74;36.83;96382.00;10395845;28;20038;-30
2023/12/04 03:49:26;;;;;;;0.50;0.33;;;;;;;16.76;37.11;96382.03;10398717;28;20037;-29
2023/12/04 03:54:26;;;;;;;0.30;0.30;;;;;;;16.74;37.28;96351.69;10404234;28;20041;-29
2023/12/04 03:59:26;;;;;;;0.63;0.40;;;;;;;16.73;36.87;96345.78;10403346;28;20045;-29
2023/12/04 04:04:27;;;;;;;0.40;0.40;;;;;;;16.77;37.19;96351.69;10404419;28;20051;-30
2023/12/04 04:09:27;;;;;;;1.27;0.67;;;;;;;16.77;37.28;96335.69;10394317;28;20076;-30
2023/12/04 04:14:28;;;;;;;0.70;0.30;;;;;;;16.77;36.84;96336.53;10392989;28;20034;-30
2023/12/04 04:19:28;;;;;;;0.63;0.55;;;;;;;16.75;37.14;96322.19;10400143;28;20087;-30
2023/12/04 04:24:29;;;;;;;0.40;0.30;;;;;;;16.76;36.57;96318.81;10394907;28;20061;-30
2023/12/04 04:29:29;;;;;;;0.43;0.40;;;;;;;16.76;37.31;96313.78;10396517;28;20040;-30
2023/12/04 04:34:29;;;;;;;0.97;0.33;;;;;;;16.73;36.57;96304.50;10397139;28;20689;-30
2023/12/04 04:39:30;;;;;;;1.70;0.33;;;;;;;16.76;36.26;96298.59;10402109;28;20399;-29
2023/12/04 04:44:30;;;;;;;0.38;0.35;;;;;;;16.75;36.77;96301.97;10400232;28;20034;-29
2023/12/04 04:49:30;;;;;;;0.40;0.37;;;;;;;16.74;36.43;96292.72;10394030;28;20034;-29
2023/12/04 04:54:32;;;;;;;0.30;0.30;;;;;;;16.70;35.95;96292.72;10415371;28;20542;-30
2023/12/04 04:59:32;;;;;;;0.40;0.40;;;;;;;16.68;36.22;96285.13;10395921;28;20046;-30
2023/12/04 05:04:33;;;;;;;0.50;0.30;;;;;;;16.69;36.23;96281.75;10406317;28;20037;-30
2023/12/04 05:09:33;;;;;;;0.40;0.40;;;;;;;16.70;36.29;96273.31;10400061;28;20040;-29
2023/12/04 05:14:33;;;;;;;0.67;0.50;;;;;;;16.71;36.00;96269.94;10399491;28;20083;-30
2023/12/04 05:19:34;;;;;;;2.10;0.30;;;;;;;16.47;36.98;96234.59;10395612;28;20044;-31
2023/12/04 05:24:35;;;;;;;1.40;0.33;;;;;;;16.72;36.96;96269.13;10392136;28;20060;-29
2023/12/04 05:29:36;;;;;;;0.90;0.57;;;;;;;16.75;36.70;96264.88;10396491;28;20041;-29
2023/12/04 05:34:36;;;;;;;0.63;0.40;;;;;;;16.69;36.25;96259.00;10382171;28;20029;-30
2023/12/04 05:39:36;;;;;;;0.30;0.30;;;;;;;16.65;35.29;96239.66;10405541;28;20299;-30
2023/12/04 05:44:37;;;;;;;0.20;0.20;;;;;;;16.65;35.79;96234.59;10404729;28;20037;-29
2023/12/04 05:49:37;;;;;;;0.43;0.40;;;;;;;16.73;35.23;96222.78;10398043;28;20036;-30
2023/12/04 05:54:37;;;;;;;0.30;0.20;;;;;;;16.79;35.16;96212.66;10407256;28;20037;-31
2023/12/04 05:59:38;;;;;;;1.03;0.73;;;;;;;16.58;35.88;96196.66;10393789;28;20046;-29
2023/12/04 06:04:38;;;;;;;1.87;1.00;;;;;;;16.67;36.78;96197.50;10396797;28;20037;-29
2023/12/04 06:09:38;;;;;;;1.13;0.80;;;;;;;16.72;36.89;96200.88;10395582;28;20036;-29
2023/12/04 06:14:39;;;;;;;1.87;0.60;;;;;;;16.73;35.70;96207.63;10388829;28;20300;-31
2023/12/04 06:19:39;;;;;;;3.27;1.10;;;;;;;16.70;36.60;96217.72;10394076;28;20034;-30
2023/12/04 06:24:41;;;;;;;2.10;0.80;;;;;;;16.75;36.04;96203.41;10392511;28;20056;-29
2023/12/04 06:29:42;;;;;;;1.77;1.00;;;;;;;15.92;35.44;96200.00;10391906;28;20668;-30
2023/12/04 06:34:42;;;;;;;4.97;1.02;;;;;;;15.96;35.10;96204.19;10395693;28;20129;-30
2023/12/04 06:39:45;;;;;;;6.63;0.95;;;;;;;16.22;36.06;96196.66;10387205;28;20133;-29
2023/12/04 06:44:46;;;;;;;1.73;0.80;;;;;;;16.37;36.52;96207.63;10387498;28;20038;-31
2023/12/04 06:49:46;;;;;;;1.80;0.70;;;;;;;16.45;36.99;96231.22;10387197;28;20392;-29
2023/12/04 06:54:46;;;;;;;3.67;0.57;;;;;;;16.48;36.43;96231.22;10389898;28;20446;-29
2023/12/04 06:59:47;;;;;;;1.20;0.70;;;;;;;16.55;36.42;96227.81;10386031;28;20303;-29
2023/12/04 07:04:48;;;;;;;3.53;0.93;;;;;;;16.58;36.35;96215.22;10392207;28;20037;-29
2023/12/04 07:09:48;;;;;;;1.23;0.60;;;;;;;16.60;36.68;96208.47;10383085;28;20030;-30
2023/12/04 07:14:48;;;;;;;1.73;0.70;;;;;;;16.61;36.90;96182.34;10381915;28;20053;-29
2023/12/04 07:19:49;;;;;;;0.70;0.70;;;;;;;16.62;36.40;96178.97;10387963;28;20091;-30
2023/12/04 07:24:49;;;;;;;0.95;0.70;;;;;;;16.60;36.56;96155.41;10388486;28;20038;-30
2023/12/04 07:29:52;;;;;;;1.00;0.67;;;;;;;16.64;36.68;96157.09;10386921;28;20388;-30
2023/12/04 07:34:53;;;;;;;3.42;0.75;;;;;;;16.63;37.10;96150.31;10389929;28;20053;-29
2023/12/04 07:39:54;;;;;;;1.00;0.60;;;;;;;16.65;36.45;96145.28;10385393;28;20053;-29
2023/12/04 07:44:54;;;;;;;1.58;0.95;;;;;;;16.63;37.05;96141.91;10388117;28;20504;-30
2023/12/04 07:49:54;;;;;;;0.40;0.40;;;;;;;16.59;37.09;96120.88;10380665;28;20037;-30
2023/12/04 07:54:55;;;;;;;2.27;0.50;;;;;;;16.62;36.65;96112.44;10386444;28;20275;-30
2023/12/04 07:59:55;;;;;;;1.15;0.65;;;;;;;16.63;36.95;96099.78;10381276;28;20029;-31
2023/12/04 08:04:56;;;;;;;0.70;0.50;;;;;;;16.62;37.04;96113.28;10395616;28;20068;-30
2023/12/04 08:09:56;;;;;;;0.68;0.63;;;;;;;16.44;37.15;96100.69;10386225;28;20060;-30
2023/12/04 08:14:56;;;;;;;1.27;0.70;;;;;;;16.67;37.90;96141.91;10379545;28;20021;-29
2023/12/04 08:19:57;;;;;;;0.80;0.50;;;;;;;16.71;38.65;96152.84;10385393;28;20782;-29
2023/12/04 08:24:58;;;;;;;1.17;0.90;;;;;;;16.69;38.75;96165.50;10378294;28;20038;-30
2023/12/04 08:29:58;;;;;;;0.93;0.60;;;;;;;16.70;39.61;96186.56;10381905;28;20424;-32
2023/12/04 08:34:58;;;;;;;1.70;0.60;;;;;;;16.67;37.89;96186.53;10385386;28;20033;-30
2023/12/04 08:39:59;;;;;;;0.70;0.60;;;;;;;16.62;38.23;96216.88;10381249;28;20091;-30
2023/12/04 08:44:59;;;;;;;1.45;0.80;;;;;;;16.60;37.91;96216.03;10378588;28;20033;-29
2023/12/04 08:50:00;;;;;;;1.40;0.70;;;;;;;16.60;37.53;96220.28;10380139;28;20075;-30
2023/12/04 08:55:01;;;;;;;0.85;0.50;;;;;;;16.64;37.26;96206.78;10382749;28;20029;-29
2023/12/04 09:00:03;;;;;;;0.82;0.43;;;;;;;16.64;37.69;96191.63;10378746;28;20032;-30
2023/12/04 09:05:04;;;;;;;0.65;0.47;;;;;;;16.63;37.41;96175.59;10379669;28;20059;-29
2023/12/04 09:10:05;;;;;;;1.05;0.60;;;;;;;16.61;37.59;96169.72;10375319;28;20029;-30
2023/12/04 09:15:05;;;;;;;0.98;0.80;;;;;;;16.57;37.58;96145.31;10379693;28;20062;-30
2023/12/04 09:20:06;;;;;;;0.52;0.52;;;;;;;16.62;37.54;96153.69;10382992;28;20026;-29
2023/12/04 09:25:08;;;;;;;1.13;0.95;;;;;;;16.61;37.59;96167.19;10377986;28;20506;-29
2023/12/04 09:30:09;;;;;;;1.45;0.75;;;;;;;16.61;37.67;96169.72;10380602;28;20485;-29
2023/12/04 09:35:10;;;;;;;0.73;0.70;;;;;;;16.61;37.35;96169.72;10377187;28;20026;-29
2023/12/04 09:40:11;;;;;;;1.20;0.80;;;;;;;16.61;38.11;96159.59;10384616;28;20116;-30
2023/12/04 09:45:12;;;;;;;1.13;0.90;;;;;;;16.56;37.40;96157.94;10409791;28;20040;-30
2023/12/04 09:50:14;;;;;;;2.00;0.70;;;;;;;16.60;38.06;96152.88;10410568;28;20092;-29
2023/12/04 09:55:15;;;;;;;1.00;0.75;;;;;;;16.60;38.38;96130.13;10397632;28;20066;-30
2023/12/04 10:00:17;;;;;;;0.88;0.68;;;;;;;16.60;37.90;96130.13;10416836;28;20041;-29
2023/12/04 10:05:18;;;;;;;0.70;0.60;;;;;;;16.61;37.96;96121.69;10418629;28;20033;-30
2023/12/04 10:10:18;;;;;;;1.02;0.80;;;;;;;16.62;38.47;96113.28;10403160;28;20092;-29
2023/12/04 10:15:18;;;;;;;0.93;0.70;;;;;;;16.59;38.10;96112.44;10415556;28;20047;-29
2023/12/04 10:20:20;;;;;;;1.20;0.90;;;;;;;16.58;37.83;96106.56;10396430;28;20045;-30
2023/12/04 10:25:23;;;;;;;0.70;0.57;;;;;;;16.59;37.51;96103.19;10400732;28;20033;-29
2023/12/04 10:30:28;;;;;;;0.98;0.70;;;;;;;16.56;37.48;96098.16;10401917;28;20451;-30
2023/12/04 10:35:33;;;;;;;1.15;0.90;;;;;;;16.62;37.38;96077.88;10405865;28;20484;-29
2023/12/04 10:40:35;;;;;;;1.13;0.70;;;;;;;16.67;38.44;96068.63;10397189;28;20696;-29
2023/12/04 10:45:37;;;;;;;0.82;0.65;;;;;;;16.68;38.78;96047.56;10412091;28;20039;-29
2023/12/04 10:50:39;;;;;;;0.98;0.57;;;;;;;16.69;38.96;96056.00;10405712;28;20026;-29
2023/12/04 10:55:40;;;;;;;2.00;0.85;;;;;;;16.67;39.32;96053.47;10402276;28;20036;-29
2023/12/04 11:00:45;;;;;;;0.98;0.70;;;;;;;16.70;39.32;96034.91;10412027;28;20450;-29
2023/12/04 11:05:51;;;;;;;0.55;0.55;;;;;;;16.69;39.42;96023.97;10394619;28;20566;-29
2023/12/04 11:11:09;;;;;;;1.30;0.68;;;;;;;16.70;39.47;96020.56;10412238;28;20086;-30
2023/12/04 11:16:22;;;;;;;0.70;0.45;;;;;;;16.69;39.55;95992.81;10402233;28;20471;-30
2023/12/04 11:21:24;;;;;;;2.45;0.80;;;;;;;16.57;40.92;95986.13;10396919;28;20046;-30
2023/12/04 11:26:25;;;;;;;2.25;0.60;;;;;;;16.66;42.05;95978.50;10412946;28;20030;-30
2023/12/04 11:31:26;;;;;;;2.10;0.90;;;;;;;16.71;42.51;95979.28;10400120;28;20035;-29
2023/12/04 11:36:27;;;;;;;2.22;0.60;;;;;;;16.74;42.64;95966.66;10393596;28;20508;-29
2023/12/04 11:41:29;;;;;;;0.70;0.60;;;;;;;16.75;42.70;95974.22;10405600;28;20455;-30
2023/12/04 11:46:31;;;;;;;1.67;0.55;;;;;;;16.79;43.29;95962.41;10393153;28;20531;-30
2023/12/04 11:51:46;;;;;;;2.65;1.17;;;;;;;16.78;43.76;95940.50;10394859;28;20108;-30
2023/12/04 11:57:07;;;;;;;1.20;0.80;;;;;;;16.86;43.99;95942.16;10401358;28;20510;-29
2023/12/04 12:02:09;;;;;;;4.32;1.13;;;;;;;16.85;44.16;95922.78;10394959;28;20492;-30
2023/12/04 12:07:11;;;;;;;2.00;0.40;;;;;;;16.89;43.48;95919.38;10407604;28;20115;-30
2023/12/04 12:12:13;;;;;;;2.80;0.50;;;;;;;16.91;43.87;95906.72;10394384;28;20484;-30
2023/12/04 12:17:13;;;;;;;7.65;0.80;;;;;;;16.92;44.42;95895.75;10399216;28;20074;-30
2023/12/04 12:22:14;;;;;;;11.25;1.25;;;;;;;16.90;44.21;95887.34;10401594;28;20037;-30
2023/12/04 12:27:14;;;;;;;4.53;1.23;;;;;;;16.82;44.34;95866.34;10390775;28;20108;-30
2023/12/04 12:32:15;;;;;;;2.80;0.83;;;;;;;16.88;43.93;95878.91;10403502;28;20273;-31
2023/12/04 12:37:15;;;;;;;3.87;1.43;;;;;;;16.88;43.86;95863.75;10401570;28;20041;-29
2023/12/04 12:42:28;;;;;;;10.23;1.77;;;;;;;16.89;43.53;95858.69;10389742;28;20308;-29
2023/12/04 12:47:29;;;;;;;3.83;1.73;;;;;;;16.91;43.49;95857.00;10394981;28;20038;-30
2023/12/04 12:52:30;;;;;;;3.78;1.00;;;;;;;16.93;42.85;95839.28;10398508;28;20049;-30
2023/12/04 12:57:30;;;;;;;3.80;1.10;;;;;;;16.91;43.94;95833.41;10400263;28;20049;-29
2023/12/04 13:02:34;;;;;;;1.40;1.00;;;;;;;16.92;43.42;95830.84;10392322;28;20554;-29
2023/12/04 13:07:35;;;;;;;3.42;1.50;;;;;;;16.92;43.65;95819.91;10399801;28;20416;-29
2023/12/04 13:12:35;;;;;;;3.90;1.60;;;;;;;16.96;43.70;95826.63;10398921;28;20045;-29
2023/12/04 13:17:36;;;;;;;5.17;1.20;;;;;;;16.94;43.95;95808.94;10398128;28;20358;-30
2023/12/04 13:22:36;;;;;;;4.78;1.90;;;;;;;16.93;44.27;95798.84;10393759;28;20480;-29
2023/12/04 13:27:40;;;;;;;4.43;2.57;;;;;;;16.96;44.29;95796.28;10398825;28;20408;-30
2023/12/04 13:32:40;;;;;;;23.85;3.05;;;;;;;16.88;45.21;95788.78;10397727;28;20488;-30
2023/12/04 13:37:41;;;;;;;15.70;2.67;;;;;;;16.99;44.02;95792.03;10398139;28;20030;-29
2023/12/04 13:48:00;;;;;;;10.43;3.40;;;;;;;16.96;45.07;95781.97;10405885;28;20030;-30
2023/12/04 13:53:01;;;;;;;8.70;2.37;;;;;;;16.98;45.05;95770.13;10396906;28;20033;-30
2023/12/04 14:03:06;;;;;;;8.20;2.08;;;;;;;16.94;44.50;95757.53;10402415;28;20379;-29
2023/12/04 14:08:07;;;;;;;6.68;2.00;;;;;;;16.97;44.74;95744.84;10398809;28;20040;-30
2023/12/04 14:13:07;;;;;;;6.20;2.20;;;;;;;17.01;44.77;95749.91;10408958;28;20100;-29
2023/12/04 14:18:08;;;;;;;5.05;2.15;;;;;;;17.02;44.75;95736.41;10402009;28;20033;-29
2023/12/04 14:23:09;;;;;;;2.67;2.08;;;;;;;17.03;45.04;95727.09;10397832;28;20038;-29
2023/12/04 14:28:11;;;;;;;3.00;1.90;;;;;;;17.05;44.64;95725.38;10405625;28;20060;-30
2023/12/04 14:33:12;;;;;;;4.00;2.28;;;;;;;17.07;44.98;95728.75;10401879;28;20025;-29
2023/12/04 14:38:12;;;;;;;4.57;1.77;;;;;;;17.09;44.49;95732.09;10400334;28;20032;-29
2023/12/04 14:43:13;;;;;;;5.50;2.92;;;;;;;17.09;45.02;95722.81;10402629;28;20523;-31
2023/12/04 14:48:13;;;;;;;7.53;3.53;;;;;;;17.06;44.56;95722.03;10397790;28;20060;-29
2023/12/04 14:53:28;;;;;;;7.20;3.40;;;;;;;17.07;45.12;95723.72;10402317;28;20050;-29
2023/12/04 15:14:39;;;;;;;14.77;5.60;;;;;;;16.96;45.13;95695.16;10393342;28;20037;-29
2023/12/04 15:19:57;;;;;;;9.48;5.25;;;;;;;16.97;44.88;95705.25;10393340;28;20538;-30
2023/12/04 15:24:57;;;;;;;8.15;4.10;;;;;;;17.00;44.83;95684.97;10395602;28;20090;-30
2023/12/04 15:29:57;;;;;;;8.37;4.63;;;;;;;17.00;46.64;95690.03;10398573;28;20032;-30
2023/12/04 15:34:58;;;;;;;14.07;5.00;;;;;;;17.04;46.98;95674.00;10402358;28;20499;-30
2023/12/04 15:39:58;;;;;;;15.67;4.70;;;;;;;17.08;46.67;95664.69;10395807;28;20545;-30
2023/12/04 15:44:59;;;;;;;12.23;5.47;;;;;;;17.10;47.03;95652.84;10396015;28;20276;-30
2023/12/04 15:49:59;;;;;;;27.47;6.17;;;;;;;17.11;47.33;95639.34;10391212;28;20492;-31
2023/12/04 15:54:59;;;;;;;18.37;6.20;;;;;;;17.11;47.88;95635.16;10394758;28;20045;-30
2023/12/04 16:00:00;;;;;;;19.80;6.27;;;;;;;17.20;47.66;95639.25;10406668;28;20627;-29
2023/12/04 16:05:00;;;;;;;20.20;4.97;;;;;;;17.27;47.64;95633.25;10399060;28;20064;-30
2023/12/04 16:10:00;;;;;;;14.57;4.60;;;;;;;17.34;47.75;95627.28;10388139;28;20105;-30
2023/12/04 16:15:03;;;;;;;12.90;5.67;;;;;;;17.38;47.13;95616.28;10389904;28;20470;-29
2023/12/04 16:20:09;;;;;;;19.15;5.72;;;;;;;17.46;47.06;95609.41;10388884;28;20026;-30
2023/12/04 16:25:11;;;;;;;14.68;5.40;;;;;;;17.49;47.26;95591.69;10389478;28;20033;-30
2023/12/04 16:30:12;;;;;;;15.45;7.05;;;;;;;17.52;47.31;95596.69;10392967;28;20041;-29
2023/12/04 16:35:13;;;;;;;12.63;4.80;;;;;;;17.58;46.93;95592.38;10394762;28;20037;-33
2023/12/04 16:40:14;;;;;;;17.73;4.97;;;;;;;17.63;46.65;95580.50;10387832;28;20034;-31
2023/12/04 16:45:15;;;;;;;12.70;4.05;;;;;;;17.70;46.41;95568.56;10393897;28;20034;-31
2023/12/04 16:50:15;;;;;;;9.05;4.22;;;;;;;17.73;46.18;95561.78;10387506;28;20488;-29
2023/12/04 16:55:16;;;;;;;15.50;4.43;;;;;;;17.61;46.51;95553.53;10398387;28;20034;-32
2023/12/04 17:00:17;;;;;;;12.10;4.38;;;;;;;17.43;46.36;95536.94;10394906;28;20492;-31
2023/12/04 17:05:17;;;;;;;13.32;4.32;;;;;;;17.47;46.75;95537.72;10389037;28;20041;-31
2023/12/04 17:10:18;;;;;;;9.70;4.53;;;;;;;17.42;46.70;95534.44;10384246;28;20029;-29
2023/12/04 17:15:19;;;;;;;9.68;4.75;;;;;;;17.41;47.66;95536.13;10412741;28;20294;-31
2023/12/04 17:20:19;;;;;;;10.20;5.10;;;;;;;17.44;46.86;95542.84;10392593;28;20511;-30
2023/12/04 17:25:19;;;;;;;13.63;4.88;;;;;;;17.43;47.03;95531.03;10390888;28;20112;-30
2023/12/04 17:30:20;;;;;;;9.77;4.43;;;;;;;17.43;47.25;95523.44;10391646;28;20492;-30
2023/12/04 17:35:22;;;;;;;8.97;4.30;;;;;;;17.41;47.35;95517.59;10383779;28;20042;-29
2023/12/04 17:40:22;;;;;;;10.60;4.38;;;;;;;17.39;46.82;95515.06;10393641;28;20033;-29
2023/12/04 17:45:23;;;;;;;10.27;4.50;;;;;;;17.39;46.89;95494.84;10386019;28;20045;-30
2023/12/04 17:50:23;;;;;;;8.32;3.95;;;;;;;17.38;46.91;95495.69;10384532;28;20048;-30
2023/12/04 17:55:23;;;;;;;7.23;4.63;;;;;;;17.37;46.71;95499.09;10390082;28;20045;-30
2023/12/04 18:00:24;;;;;;;8.40;4.30;;;;;;;17.36;46.48;95484.78;10408604;28;20034;-29
2023/12/04 18:05:24;;;;;;;8.07;4.30;;;;;;;17.35;46.71;95484.75;10404180;28;20038;-30
2023/12/04 18:10:24;;;;;;;10.53;4.47;;;;;;;17.34;46.96;95475.50;10387466;28;20399;-29
2023/12/04 18:15:25;;;;;;;9.53;5.17;;;;;;;17.31;47.28;95476.38;10398472;28;20296;-30
2023/12/04 18:20:26;;;;;;;13.07;5.22;;;;;;;17.33;46.71;95473.84;10395877;28;20056;-30
2023/12/04 18:25:26;;;;;;;6.97;4.67;;;;;;;17.31;46.73;95485.66;10392318;28;20034;-30
2023/12/04 18:30:28;;;;;;;12.63;5.20;;;;;;;17.34;46.84;95472.97;10404275;28;20107;-30
2023/12/04 18:35:29;;;;;;;11.15;4.43;;;;;;;17.33;46.53;95468.78;10395472;28;20403;-30
2023/12/04 18:40:29;;;;;;;9.88;4.40;;;;;;;17.37;46.43;95470.41;10394497;28;20033;-30
2023/12/04 18:45:30;;;;;;;11.05;4.95;;;;;;;17.35;46.34;95472.09;10402640;28;20021;-30
2023/12/04 18:50:31;;;;;;;15.82;4.90;;;;;;;17.33;46.95;95468.78;10399854;28;20029;-30
2023/12/04 18:55:32;;;;;;;9.82;5.22;;;;;;;17.34;46.95;95475.50;10403245;28;20025;-29
2023/12/04 19:00:33;;;;;;;13.77;4.93;;;;;;;17.34;46.40;95480.56;10399140;28;20455;-30
2023/12/04 19:05:34;;;;;;;9.65;5.03;;;;;;;17.34;46.79;95471.25;10387616;28;20280;-31
2023/12/04 19:10:34;;;;;;;12.37;4.90;;;;;;;17.34;46.55;95481.38;10396943;28;20033;-30
2023/12/04 19:15:34;;;;;;;9.70;4.93;;;;;;;17.34;46.48;95460.31;10399752;28;20037;-29
2023/12/04 19:20:35;;;;;;;11.73;5.10;;;;;;;17.36;46.44;95468.75;10405971;28;20059;-30
2023/12/04 19:25:38;;;;;;;9.10;4.65;;;;;;;17.36;46.43;95469.59;10396288;28;20034;-29
2023/12/04 19:30:39;;;;;;;7.30;4.72;;;;;;;17.36;46.30;95459.47;10394453;28;20061;-29
2023/12/04 19:35:39;;;;;;;8.60;5.30;;;;;;;17.36;46.35;95468.75;10404508;28;20041;-29
2023/12/04 19:40:40;;;;;;;7.20;4.17;;;;;;;17.37;46.18;95455.22;10401431;28;20373;-30
2023/12/04 19:45:40;;;;;;;9.80;5.20;;;;;;;17.37;47.42;95466.19;10406006;28;20290;-30
2023/12/04 19:50:41;;;;;;;11.60;5.35;;;;;;;17.41;46.68;95482.16;10394967;28;20044;-30
2023/12/04 19:55:41;;;;;;;8.20;4.38;;;;;;;17.41;46.19;95464.47;10394277;28;20103;-30
2023/12/04 20:00:42;;;;;;;8.07;4.53;;;;;;;17.43;46.27;95470.31;10399124;28;20041;-30
2023/12/04 20:05:42;;;;;;;9.90;5.17;;;;;;;17.44;46.16;95461.88;10396403;28;20095;-30
2023/12/04 20:10:42;;;;;;;10.07;5.30;;;;;;;17.43;46.60;95439.97;10400498;28;20033;-30
2023/12/04 20:15:43;;;;;;;9.75;5.40;;;;;;;17.39;46.67;95433.28;10378358;28;20037;-30
2023/12/04 20:20:43;;;;;;;12.40;5.90;;;;;;;17.42;46.88;95431.53;10383331;28;20029;-30
2023/12/04 20:25:43;;;;;;;9.90;5.20;;;;;;;17.41;46.69;95436.63;10412312;28;20038;-31
2023/12/04 20:30:44;;;;;;;7.77;4.57;;;;;;;17.38;46.77;95439.19;10401368;28;20129;-30
2023/12/04 20:35:48;;;;;;;11.38;6.05;;;;;;;17.34;47.15;95445.16;10402060;28;20333;-29
2023/12/04 20:40:49;;;;;;;9.98;5.18;;;;;;;17.30;47.50;95461.22;10396222;28;20103;-30
2023/12/04 20:45:49;;;;;;;8.63;5.53;;;;;;;17.29;48.25;95457.00;10380435;28;20091;-29
2023/12/04 20:50:50;;;;;;;9.27;4.22;;;;;;;17.33;47.14;95446.00;10388257;28;20104;-30
2023/12/04 20:55:50;;;;;;;10.13;4.93;;;;;;;17.34;47.22;95460.31;10400243;28;20039;-30
2023/12/04 21:00:51;;;;;;;10.97;6.40;;;;;;;17.18;47.35;95433.59;10388876;28;20041;-30
2023/12/04 21:05:52;;;;;;;9.48;4.97;;;;;;;17.31;47.04;95450.25;10406459;28;20400;-30
2023/12/04 21:10:52;;;;;;;7.87;4.57;;;;;;;17.31;47.12;95455.31;10408178;28;20033;-30
2023/12/04 21:15:53;;;;;;;11.30;5.23;;;;;;;17.31;48.36;95450.25;10400403;28;20047;-30
2023/12/04 21:20:53;;;;;;;8.27;5.47;;;;;;;17.30;49.19;95459.53;10398480;28;20103;-29
2023/12/04 21:25:54;;;;;;;8.50;5.10;;;;;;;17.29;49.76;95451.97;10395877;28;20026;-30
2023/12/04 21:30:56;;;;;;;8.38;4.65;;;;;;;17.28;49.40;95453.66;10385230;28;20026;-30
2023/12/04 21:35:58;;;;;;;11.43;4.43;;;;;;;17.26;50.15;95427.53;10385627;28;20041;-30
2023/12/04 21:40:58;;;;;;;13.40;5.03;;;;;;;17.26;50.00;95442.72;10389251;28;20036;-29
2023/12/04 21:46:00;;;;;;;11.67;5.53;;;;;;;17.25;49.70;95436.00;10389834;28;20113;-29
2023/12/04 21:51:01;;;;;;;11.43;4.43;;;;;;;17.24;50.48;95433.50;10385853;28;20022;-30
2023/12/04 21:56:01;;;;;;;9.18;4.55;;;;;;;17.24;50.59;95436.03;10392801;28;20033;-31
2023/12/04 22:01:02;;;;;;;10.25;3.85;;;;;;;17.23;49.99;95427.59;10390099;28;20045;-30
2023/12/04 22:06:06;;;;;;;11.00;4.50;;;;;;;17.24;49.32;95430.97;10401818;28;20037;-30
2023/12/04 22:11:06;;;;;;;8.93;4.43;;;;;;;17.23;50.10;95447.84;10389235;28;20029;-30
2023/12/04 22:16:07;;;;;;;17.90;5.22;;;;;;;17.23;50.53;95436.91;10409096;28;20041;-30
2023/12/04 22:21:07;;;;;;;9.13;4.72;;;;;;;17.21;50.25;95454.63;10401997;28;20030;-30
2023/12/04 22:26:07;;;;;;;10.40;4.23;;;;;;;17.22;49.37;95453.75;10383951;28;20025;-30
2023/12/04 22:31:16;;;;;;;11.47;3.90;;;;;;;17.20;50.77;95447.03;10378689;28;20030;-30
2023/12/04 22:36:17;;;;;;;10.35;4.00;;;;;;;17.22;49.40;95452.91;10383503;28;20068;-30
2023/12/04 22:41:18;;;;;;;8.25;3.72;;;;;;;17.19;50.08;95456.34;10402721;28;20092;-30
2023/12/04 22:46:18;;;;;;;6.93;3.33;;;;;;;17.21;49.91;95458.81;10400583;28;20033;-30
2023/12/04 22:51:19;;;;;;;7.70;3.57;;;;;;;17.19;50.06;95447.91;10401251;28;20029;-30
2023/12/04 22:56:20;;;;;;;5.80;3.47;;;;;;;17.20;49.57;95452.09;10398092;28;20323;-29
2023/12/04 23:01:20;;;;;;;7.07;4.03;;;;;;;17.18;50.11;95464.78;10415481;28;20041;-29
2023/12/04 23:06:20;;;;;;;7.13;3.87;;;;;;;17.19;49.42;95460.53;10402956;28;20090;-30
2023/12/04 23:11:21;;;;;;;8.60;3.80;;;;;;;17.17;49.86;95470.69;10398124;28;20045;-29
2023/12/04 23:16:21;;;;;;;8.77;3.10;;;;;;;17.16;49.81;95469.00;10398111;28;20431;-30
2023/12/04 23:21:22;;;;;;;7.03;3.28;;;;;;;17.16;49.65;95465.66;10409134;28;20048;-29
2023/12/04 23:26:22;;;;;;;8.80;3.23;;;;;;;17.13;50.00;95455.56;10406068;28;20435;-31
2023/12/04 23:31:23;;;;;;;8.20;4.70;;;;;;;17.14;49.83;95453.03;10400109;28;20039;-30
2023/12/04 23:36:25;;;;;;;6.90;3.00;;;;;;;17.15;49.50;95466.53;10392739;28;20377;-29
2023/12/04 23:41:25;;;;;;;6.05;2.90;;;;;;;17.13;49.84;95473.28;10393429;28;20038;-30
2023/12/04 23:46:26;;;;;;;7.13;3.00;;;;;;;17.12;50.09;95469.94;10400435;28;20061;-30